createdAt,value
2023-02-06T00:00:51.168Z,102090.44
2023-02-06T00:03:18.284Z,102083.72
2023-02-06T00:05:53.264Z,102084.59
2023-02-06T00:08:20.241Z,102083.03
2023-02-06T00:10:46.970Z,102097.44
2023-02-06T00:13:13.704Z,102099.22
2023-02-06T00:15:40.480Z,102098.34
2023-02-06T00:18:07.213Z,102099.16
2023-02-06T00:20:34.000Z,102093.38
2023-02-06T00:23:00.725Z,102082.44
2023-02-06T00:25:27.415Z,102079.13
2023-02-06T00:27:54.196Z,102096.03
2023-02-06T00:30:21.038Z,102089.28
2023-02-06T00:32:47.897Z,102097.78
2023-02-06T00:35:14.705Z,102107.94
2023-02-06T00:37:41.501Z,102096.03
2023-02-06T00:40:08.909Z,102090.16
2023-02-06T00:42:35.616Z,102091.06
2023-02-06T00:45:02.357Z,102088.34
2023-02-06T00:47:30.308Z,102089.56
2023-02-06T00:49:57.020Z,102094.66
2023-02-06T00:52:23.756Z,102088.16
2023-02-06T00:54:50.848Z,102088.84
2023-02-06T00:57:17.669Z,102084.56
2023-02-06T00:59:44.613Z,102104.06
2023-02-06T01:02:11.466Z,102091.47
2023-02-06T01:04:38.513Z,102084.97
2023-02-06T01:07:06.539Z,102102.72
2023-02-06T01:09:33.263Z,102104.50
2023-02-06T01:12:00.047Z,102091.75
2023-02-06T01:14:26.933Z,102093.34
2023-02-06T01:16:53.732Z,102104.16
2023-02-06T01:19:20.502Z,102095.69
2023-02-06T01:21:47.306Z,102093.00
2023-02-06T01:24:16.205Z,102099.09
2023-02-06T01:26:43.944Z,102096.56
2023-02-06T01:29:10.709Z,102093.97
2023-02-06T01:31:37.502Z,102109.13
2023-02-06T01:34:04.305Z,102101.53
2023-02-06T01:36:31.096Z,102094.72
2023-02-06T01:38:57.898Z,102096.38
2023-02-06T01:41:24.898Z,102095.63
2023-02-06T01:44:22.049Z,102091.69
2023-02-06T01:46:53.573Z,102098.38
2023-02-06T01:49:25.644Z,102083.31
2023-02-06T01:52:04.740Z,102086.78
2023-02-06T01:54:31.983Z,102074.06
2023-02-06T01:57:02.495Z,102075.97
2023-02-06T01:59:29.406Z,102071.03
2023-02-06T02:01:56.695Z,102067.56
2023-02-06T02:04:25.809Z,102067.78
2023-02-06T02:07:21.519Z,102067.91
2023-02-06T02:09:48.353Z,102057.53
2023-02-06T02:12:15.398Z,102064.19
2023-02-06T02:14:44.456Z,102059.88
2023-02-06T02:17:26.623Z,102064.91
2023-02-06T02:20:11.391Z,102053.81
2023-02-06T02:22:53.139Z,102059.78
2023-02-06T02:25:50.945Z,102066.66
2023-02-06T02:28:39.738Z,102064.19
2023-02-06T02:31:18.823Z,102060.75
2023-02-06T02:33:56.172Z,102060.69
2023-02-06T02:37:03.804Z,102061.56
2023-02-06T02:40:01.798Z,102068.38
2023-02-06T02:42:50.512Z,102066.66
2023-02-06T02:45:42.665Z,102066.50
2023-02-06T02:48:17.198Z,102057.28
2023-02-06T02:50:44.405Z,102053.03
2023-02-06T02:53:12.900Z,102054.69
2023-02-06T02:55:39.713Z,102040.34
2023-02-06T02:58:12.193Z,102046.31
2023-02-06T03:00:55.552Z,102046.38
2023-02-06T03:03:23.797Z,102040.88
2023-02-06T03:06:20.199Z,102040.59
2023-02-06T03:09:10.340Z,102037.03
2023-02-06T03:11:43.385Z,102037.81
2023-02-06T03:14:21.458Z,102032.81
2023-02-06T03:16:57.139Z,102040.31
2023-02-06T03:19:40.336Z,102046.19
2023-02-06T03:22:07.237Z,102051.09
2023-02-06T03:24:39.140Z,102056.84
2023-02-06T03:27:11.382Z,102056.06
2023-02-06T03:29:40.659Z,102062.69
2023-02-06T03:32:29.851Z,102055.84
2023-02-06T03:35:08.035Z,102060.84
2023-02-06T03:37:37.176Z,102064.03
2023-02-06T03:40:06.078Z,102060.59
2023-02-06T03:42:39.130Z,102062.19
2023-02-06T03:45:17.217Z,102065.56
2023-02-06T03:47:46.243Z,102074.69
2023-02-06T03:50:14.027Z,102073.84
2023-02-06T03:52:46.936Z,102070.53
2023-02-06T03:55:18.105Z,102068.09
2023-02-06T03:57:49.061Z,102072.47
2023-02-06T04:00:16.296Z,102074.25
2023-02-06T04:02:44.633Z,102077.56
2023-02-06T04:05:11.390Z,102067.22
2023-02-06T04:07:38.276Z,102066.22
2023-02-06T04:10:05.334Z,102065.28
2023-02-06T04:12:32.222Z,102066.81
2023-02-06T04:14:58.991Z,102076.97
2023-02-06T04:17:40.983Z,102065.88
2023-02-06T04:20:12.980Z,102076.84
2023-02-06T04:22:40.965Z,102073.47
2023-02-06T04:25:08.380Z,102064.97
2023-02-06T04:27:35.254Z,102060.09
2023-02-06T04:30:02.063Z,102061.63
2023-02-06T04:32:29.907Z,102069.00
2023-02-06T04:34:56.756Z,102070.81
2023-02-06T04:37:23.523Z,102073.72
2023-02-06T04:39:50.372Z,102080.44
2023-02-06T04:42:17.166Z,102067.63
2023-02-06T04:44:45.366Z,102053.59
2023-02-06T04:47:12.426Z,102067.69
2023-02-06T04:49:39.184Z,102075.91
2023-02-06T04:52:06.089Z,102068.94
2023-02-06T04:54:34.011Z,102071.88
2023-02-06T04:57:00.759Z,102084.41
2023-02-06T04:59:27.646Z,102080.50
2023-02-06T05:01:54.450Z,102079.72
2023-02-06T05:04:21.196Z,102077.38
2023-02-06T05:06:48.825Z,102076.81
2023-02-06T05:09:16.398Z,102066.66
2023-02-06T05:11:43.130Z,102059.16
2023-02-06T05:14:09.834Z,102069.91
2023-02-06T05:16:36.545Z,102073.22
2023-02-06T05:19:03.297Z,102070.00
2023-02-06T05:21:30.097Z,102081.28
2023-02-06T05:23:56.873Z,102082.22
2023-02-06T05:26:23.693Z,102077.09
2023-02-06T05:28:50.658Z,102078.31
2023-02-06T05:31:20.430Z,102073.31
2023-02-06T05:33:51.858Z,102073.56
2023-02-06T05:36:19.984Z,102070.09
2023-02-06T05:38:47.182Z,102055.88
2023-02-06T05:41:14.310Z,102064.25
2023-02-06T05:43:41.275Z,102063.44
2023-02-06T05:46:08.239Z,102069.81
2023-02-06T05:48:35.269Z,102066.78
2023-02-06T05:51:02.627Z,102056.63
2023-02-06T05:53:29.607Z,102070.19
2023-02-06T05:55:57.084Z,102067.72
2023-02-06T05:58:24.205Z,102066.00
2023-02-06T06:00:51.021Z,102071.91
2023-02-06T06:03:17.908Z,102078.75
2023-02-06T06:05:45.235Z,102067.00
2023-02-06T06:08:11.941Z,102057.91
2023-02-06T06:10:38.761Z,102070.25
2023-02-06T06:13:05.503Z,102073.13
2023-02-06T06:15:32.283Z,102074.56
2023-02-06T06:17:59.041Z,102075.34
2023-02-06T06:20:25.850Z,102066.94
2023-02-06T06:22:52.569Z,102069.00
2023-02-06T06:25:19.395Z,102066.47
2023-02-06T06:27:46.505Z,102059.50
2023-02-06T06:30:13.743Z,102057.56
2023-02-06T06:32:40.582Z,102058.53
2023-02-06T06:35:07.589Z,102047.56
2023-02-06T06:37:34.388Z,102061.03
2023-02-06T06:40:01.154Z,102056.63
2023-02-06T06:42:28.769Z,102058.00
2023-02-06T06:44:55.588Z,102052.34
2023-02-06T06:47:22.438Z,102064.13
2023-02-06T06:49:49.135Z,102061.44
2023-02-06T06:52:24.434Z,102065.50
2023-02-06T06:54:53.070Z,102064.56
2023-02-06T06:57:20.807Z,102067.50
2023-02-06T06:59:47.609Z,102071.41
2023-02-06T07:02:14.754Z,102059.44
2023-02-06T07:04:41.727Z,102070.97
2023-02-06T07:07:08.713Z,102075.06
2023-02-06T07:09:35.654Z,102076.81
2023-02-06T07:12:02.521Z,102072.63
2023-02-06T07:14:29.272Z,102073.28
2023-02-06T07:16:56.483Z,102081.31
2023-02-06T07:19:23.463Z,102080.97
2023-02-06T07:21:50.234Z,102083.34
2023-02-06T07:24:17.054Z,102084.47
2023-02-06T07:26:44.726Z,102089.72
2023-02-06T07:29:11.540Z,102082.28
2023-02-06T07:31:38.387Z,102076.91
2023-02-06T07:34:05.258Z,102079.22
2023-02-06T07:36:32.046Z,102078.22
2023-02-06T07:38:58.771Z,102083.00
2023-02-06T07:41:25.526Z,102097.53
2023-02-06T07:43:54.261Z,102094.09
2023-02-06T07:46:21.365Z,102094.31
2023-02-06T07:48:48.221Z,102083.56
2023-02-06T07:51:15.092Z,102098.03
2023-02-06T07:53:41.947Z,102092.66
2023-02-06T07:56:14.260Z,102092.69
2023-02-06T07:58:41.411Z,102093.97
2023-02-06T08:01:08.903Z,102100.34
2023-02-06T08:03:36.562Z,102099.97
2023-02-06T08:06:09.769Z,102099.50
2023-02-06T08:08:36.559Z,102107.19
2023-02-06T08:11:11.869Z,102095.78
2023-02-06T08:13:39.001Z,102101.81
2023-02-06T08:16:08.063Z,102096.38
2023-02-06T08:18:35.107Z,102101.25
2023-02-06T08:21:10.483Z,102102.53
2023-02-06T08:23:37.589Z,102097.47
2023-02-06T08:26:11.062Z,102098.75
2023-02-06T08:28:38.137Z,102104.97
2023-02-06T08:31:35.916Z,102111.13
2023-02-06T08:34:03.433Z,102112.38
2023-02-06T08:36:32.187Z,102115.31
2023-02-06T08:39:00.103Z,102115.63
2023-02-06T08:41:30.096Z,102112.53
2023-02-06T08:43:59.576Z,102107.50
2023-02-06T08:46:28.947Z,102118.97
2023-02-06T08:48:57.949Z,102104.31
2023-02-06T08:51:27.979Z,102111.28
2023-02-06T08:54:03.319Z,102112.59
2023-02-06T08:56:31.664Z,102119.72
2023-02-06T08:58:59.864Z,102111.50
2023-02-06T09:01:28.755Z,102108.84
2023-02-06T09:03:57.509Z,102109.47
2023-02-06T09:06:25.619Z,102112.44
2023-02-06T09:08:53.439Z,102109.81
2023-02-06T09:11:22.332Z,102117.38
2023-02-06T09:13:50.137Z,102110.09
2023-02-06T09:16:19.315Z,102099.97
2023-02-06T09:18:46.500Z,102106.19
2023-02-06T09:21:19.304Z,102105.13
2023-02-06T09:23:48.332Z,102106.72
2023-02-06T09:26:17.863Z,102109.88
2023-02-06T09:28:44.928Z,102111.50
2023-02-06T09:31:12.404Z,102105.63
2023-02-06T09:33:40.409Z,102110.72
2023-02-06T09:36:16.024Z,102110.50
2023-02-06T09:38:45.598Z,102115.25
2023-02-06T09:41:16.523Z,102100.38
2023-02-06T09:43:52.770Z,102101.53
2023-02-06T09:46:26.979Z,102106.31
2023-02-06T09:48:56.362Z,102097.69
2023-02-06T09:51:41.019Z,102102.44
2023-02-06T09:54:55.765Z,102101.53
2023-02-06T09:57:29.315Z,102084.56
2023-02-06T10:00:19.781Z,102086.22
2023-02-06T10:03:23.664Z,102081.84
2023-02-06T10:06:11.797Z,102086.72
2023-02-06T10:08:54.298Z,102076.00
2023-02-06T10:11:51.774Z,102084.63
2023-02-06T10:14:44.683Z,102084.44
2023-02-06T10:17:24.984Z,102081.72
2023-02-06T10:20:13.977Z,102073.69
2023-02-06T10:22:54.492Z,102076.13
2023-02-06T10:25:35.219Z,102065.91
2023-02-06T10:28:24.734Z,102064.63
2023-02-06T10:31:00.736Z,102061.25
2023-02-06T10:33:51.590Z,102059.50
2023-02-06T10:36:55.176Z,102057.19
2023-02-06T10:39:30.798Z,102048.63
2023-02-06T10:42:18.252Z,102039.88
2023-02-06T10:44:51.686Z,102039.66
2023-02-06T10:47:51.608Z,102035.25
2023-02-06T10:50:33.088Z,102024.00
2023-02-06T10:53:05.184Z,102024.72
2023-02-06T10:55:48.130Z,102016.53
2023-02-06T10:58:39.996Z,102013.91
2023-02-06T11:01:24.733Z,102011.97
2023-02-06T11:04:12.354Z,102012.06
2023-02-06T11:06:41.598Z,102012.34
2023-02-06T11:09:11.154Z,102010.81
2023-02-06T11:11:40.614Z,102008.56
2023-02-06T11:14:27.935Z,102007.06
2023-02-06T11:16:57.856Z,102002.88
2023-02-06T11:19:44.514Z,102002.50
2023-02-06T11:22:15.787Z,101999.50
2023-02-06T11:25:05.880Z,102001.22
2023-02-06T11:27:34.835Z,101995.53
2023-02-06T11:30:21.203Z,102005.94
2023-02-06T11:33:02.668Z,101993.91
2023-02-06T11:35:48.225Z,101995.53
2023-02-06T11:38:28.054Z,101993.13
2023-02-06T11:41:02.729Z,101983.81
2023-02-06T11:43:41.320Z,101988.91
2023-02-06T11:46:16.038Z,101980.84
2023-02-06T11:48:47.597Z,101983.59
2023-02-06T11:51:17.069Z,101979.44
2023-02-06T11:54:02.117Z,101983.78
2023-02-06T11:56:30.535Z,101986.44
2023-02-06T11:59:23.236Z,101972.53
2023-02-06T12:01:50.613Z,101976.59
2023-02-06T12:04:24.006Z,101976.81
2023-02-06T12:07:16.569Z,101965.34
2023-02-06T12:09:43.501Z,101959.41
2023-02-06T12:12:19.226Z,101957.69
2023-02-06T12:14:57.622Z,101956.47
2023-02-06T12:17:31.118Z,101939.84
2023-02-06T12:20:12.646Z,101945.47
2023-02-06T12:22:51.931Z,101943.03
2023-02-06T12:25:36.166Z,101950.00
2023-02-06T12:28:31.217Z,101942.97
2023-02-06T12:31:35.173Z,101931.03
2023-02-06T12:34:18.549Z,101932.94
2023-02-06T12:37:00.490Z,101937.31
2023-02-06T12:39:32.201Z,101918.94
2023-02-06T12:42:17.435Z,101915.72
2023-02-06T12:44:53.174Z,101911.75
2023-02-06T12:47:34.829Z,101913.22
2023-02-06T12:50:16.542Z,101900.78
2023-02-06T12:52:50.265Z,101902.94
2023-02-06T12:55:24.163Z,101901.03
2023-02-06T12:57:52.250Z,101904.06
2023-02-06T13:00:38.214Z,101900.06
2023-02-06T13:03:23.014Z,101888.81
2023-02-06T13:06:14.632Z,101901.97
2023-02-06T13:09:01.284Z,101903.84
2023-02-06T13:11:39.195Z,101912.88
2023-02-06T13:14:17.800Z,101899.44
2023-02-06T13:16:50.861Z,101904.63
2023-02-06T13:19:46.196Z,101907.59
2023-02-06T13:22:19.483Z,101898.50
2023-02-06T13:24:49.142Z,101895.66
2023-02-06T13:27:15.888Z,101898.31
2023-02-06T13:29:46.153Z,101896.50
2023-02-06T13:32:15.849Z,101897.53
2023-02-06T13:34:44.887Z,101891.88
2023-02-06T13:37:40.304Z,101883.53
2023-02-06T13:40:30.368Z,101884.22
2023-02-06T13:43:21.470Z,101877.22
2023-02-06T13:45:55.689Z,101875.16
2023-02-06T13:48:41.307Z,101876.09
2023-02-06T13:51:26.860Z,101887.13
2023-02-06T13:54:12.477Z,101883.34
2023-02-06T13:56:58.309Z,101882.84
2023-02-06T13:59:30.198Z,101887.94
2023-02-06T14:02:03.042Z,101891.97
2023-02-06T14:04:33.531Z,101897.03
2023-02-06T14:07:03.353Z,101904.44
2023-02-06T14:09:39.972Z,101903.38
2023-02-06T14:12:39.411Z,101906.69
2023-02-06T14:15:09.124Z,101911.88
2023-02-06T14:17:46.577Z,101912.38
2023-02-06T14:20:44.366Z,101911.22
2023-02-06T14:23:17.204Z,101910.22
2023-02-06T14:26:06.376Z,101914.44
2023-02-06T14:28:45.577Z,101916.81
2023-02-06T14:31:25.501Z,101914.44
2023-02-06T14:34:33.117Z,101904.91
2023-02-06T14:37:24.068Z,101912.00
2023-02-06T14:40:04.514Z,101912.84
2023-02-06T14:42:42.936Z,101904.94
2023-02-06T14:45:38.579Z,101905.53
2023-02-06T14:48:21.169Z,101912.13
2023-02-06T14:50:53.324Z,101918.00
2023-02-06T14:53:37.027Z,101919.38
2023-02-06T14:56:07.207Z,101916.22
2023-02-06T14:58:34.183Z,101917.34
2023-02-06T15:01:23.990Z,101920.13
2023-02-06T15:03:54.813Z,101924.63
2023-02-06T15:06:34.889Z,101935.72
2023-02-06T15:09:02.383Z,101936.19
2023-02-06T15:11:32.766Z,101938.28
2023-02-06T15:14:04.343Z,101947.47
2023-02-06T15:16:33.108Z,101951.75
2023-02-06T15:19:24.746Z,101966.16
2023-02-06T15:22:01.710Z,101959.25
2023-02-06T15:24:59.533Z,101954.88
2023-02-06T15:27:35.067Z,101954.56
2023-02-06T15:30:04.714Z,101958.72
2023-02-06T15:32:40.498Z,101957.38
2023-02-06T15:35:19.493Z,101963.19
2023-02-06T15:37:46.589Z,101965.00
2023-02-06T15:40:31.134Z,101972.88
2023-02-06T15:42:59.182Z,101968.94
2023-02-06T15:45:29.703Z,101958.75
2023-02-06T15:47:57.251Z,101962.88
2023-02-06T15:50:27.890Z,101973.97
2023-02-06T15:52:55.776Z,101969.78
2023-02-06T15:55:40.885Z,101971.88
2023-02-06T15:58:07.618Z,101976.81
2023-02-06T16:00:37.265Z,101975.47
2023-02-06T16:03:16.363Z,101984.31
2023-02-06T16:05:43.902Z,101987.91
2023-02-06T16:08:20.329Z,101979.16
2023-02-06T16:11:27.598Z,101985.34
2023-02-06T16:13:54.710Z,101990.53
2023-02-06T16:16:24.199Z,101993.06
2023-02-06T16:18:52.433Z,101993.38
2023-02-06T16:21:19.221Z,101994.53
2023-02-06T16:23:51.786Z,101994.72
2023-02-06T16:26:24.958Z,101992.38
2023-02-06T16:29:09.728Z,101992.59
2023-02-06T16:31:43.478Z,101986.88
2023-02-06T16:34:36.897Z,102010.34
2023-02-06T16:37:10.951Z,102013.88
2023-02-06T16:39:40.172Z,102011.63
2023-02-06T16:42:07.015Z,102007.59
2023-02-06T16:44:44.291Z,102008.34
2023-02-06T16:47:14.638Z,102021.88
2023-02-06T16:49:41.662Z,102026.00
2023-02-06T16:52:11.142Z,102032.91
2023-02-06T16:54:38.692Z,102030.44
2023-02-06T16:57:24.574Z,102029.69
2023-02-06T16:59:51.921Z,102040.66
2023-02-06T17:02:18.756Z,102039.63
2023-02-06T17:04:45.863Z,102047.16
2023-02-06T17:07:17.558Z,102049.69
2023-02-06T17:09:45.848Z,102061.69
2023-02-06T17:12:15.602Z,102055.94
2023-02-06T17:14:43.026Z,102057.72
2023-02-06T17:17:18.759Z,102059.44
2023-02-06T17:19:46.604Z,102061.84
2023-02-06T17:22:14.003Z,102063.47
2023-02-06T17:24:41.645Z,102061.03
2023-02-06T17:27:13.563Z,102072.84
2023-02-06T17:29:40.386Z,102071.88
2023-02-06T17:32:08.484Z,102075.16
2023-02-06T17:34:36.290Z,102079.50
2023-02-06T17:37:03.556Z,102069.31
2023-02-06T17:39:30.684Z,102070.22
2023-02-06T17:41:58.408Z,102070.22
2023-02-06T17:44:25.395Z,102072.25
2023-02-06T17:46:52.375Z,102065.75
2023-02-06T17:49:19.474Z,102074.41
2023-02-06T17:51:46.644Z,102075.25
2023-02-06T17:54:13.939Z,102072.75
2023-02-06T17:56:40.759Z,102077.84
2023-02-06T17:59:08.827Z,102072.75
2023-02-06T18:01:36.083Z,102084.47
2023-02-06T18:04:03.842Z,102070.84
2023-02-06T18:06:34.508Z,102080.53
2023-02-06T18:09:01.297Z,102074.66
2023-02-06T18:11:28.401Z,102064.53
2023-02-06T18:13:55.902Z,102065.44
2023-02-06T18:16:25.721Z,102070.59
2023-02-06T18:18:53.094Z,102066.31
2023-02-06T18:21:20.662Z,102071.34
2023-02-06T18:23:49.188Z,102074.78
2023-02-06T18:26:15.991Z,102081.66
2023-02-06T18:28:42.813Z,102089.31
2023-02-06T18:31:21.635Z,102093.72
2023-02-06T18:33:48.412Z,102089.59
2023-02-06T18:36:15.374Z,102088.00
2023-02-06T18:38:42.706Z,102094.13
2023-02-06T18:41:29.656Z,102090.78
2023-02-06T18:43:59.399Z,102090.28
2023-02-06T18:46:26.190Z,102089.41
2023-02-06T18:48:54.970Z,102098.03
2023-02-06T18:51:21.794Z,102103.13
2023-02-06T18:53:48.698Z,102101.38
2023-02-06T18:56:15.696Z,102101.41
2023-02-06T18:58:42.605Z,102099.59
2023-02-06T19:01:23.451Z,102098.03
2023-02-06T19:03:52.214Z,102102.13
2023-02-06T19:06:25.296Z,102102.19
2023-02-06T19:08:52.112Z,102111.66
2023-02-06T19:11:19.115Z,102110.75
2023-02-06T19:13:46.099Z,102104.00
2023-02-06T19:16:18.865Z,102098.34
2023-02-06T19:18:48.067Z,102110.25
2023-02-06T19:21:18.013Z,102106.16
2023-02-06T19:23:47.333Z,102105.31
2023-02-06T19:26:16.831Z,102107.94
2023-02-06T19:28:44.771Z,102113.16
2023-02-06T19:31:13.749Z,102118.94
2023-02-06T19:33:41.813Z,102122.13
2023-02-06T19:36:14.326Z,102121.28
2023-02-06T19:38:42.035Z,102123.84
2023-02-06T19:41:14.523Z,102117.22
2023-02-06T19:43:43.526Z,102114.59
2023-02-06T19:46:13.476Z,102123.84
2023-02-06T19:48:46.732Z,102123.06
2023-02-06T19:51:15.078Z,102120.56
2023-02-06T19:53:48.061Z,102126.78
2023-02-06T19:56:19.105Z,102125.84
2023-02-06T19:58:45.821Z,102119.41
2023-02-06T20:01:15.092Z,102116.84
2023-02-06T20:03:42.905Z,102120.22
2023-02-06T20:06:12.975Z,102123.78
2023-02-06T20:08:42.921Z,102126.44
2023-02-06T20:11:15.914Z,102126.56
2023-02-06T20:13:43.855Z,102125.75
2023-02-06T20:16:24.740Z,102126.72
2023-02-06T20:18:52.247Z,102130.06
2023-02-06T20:21:29.529Z,102119.09
2023-02-06T20:23:59.221Z,102133.47
2023-02-06T20:26:31.850Z,102126.72
2023-02-06T20:28:59.523Z,102121.75
2023-02-06T20:31:27.716Z,102116.81
2023-02-06T20:33:55.898Z,102110.06
2023-02-06T20:36:26.823Z,102112.69
2023-02-06T20:38:58.811Z,102105.19
2023-02-06T20:41:28.741Z,102110.28
2023-02-06T20:43:58.232Z,102108.75
2023-02-06T20:46:27.367Z,102117.25
2023-02-06T20:49:02.735Z,102121.53
2023-02-06T20:51:30.035Z,102118.22
2023-02-06T20:53:57.107Z,102120.00
2023-02-06T20:56:27.347Z,102127.63
2023-02-06T20:58:54.622Z,102134.38
2023-02-06T21:01:24.421Z,102132.84
2023-02-06T21:03:54.577Z,102132.00
2023-02-06T21:06:21.510Z,102141.34
2023-02-06T21:08:50.354Z,102150.69
2023-02-06T21:11:17.830Z,102157.50
2023-02-06T21:13:44.644Z,102153.38
2023-02-06T21:16:13.574Z,102161.13
2023-02-06T21:18:42.614Z,102165.44
2023-02-06T21:21:12.981Z,102169.63
2023-02-06T21:23:42.401Z,102176.50
2023-02-06T21:26:10.778Z,102177.47
2023-02-06T21:28:38.241Z,102181.84
2023-02-06T21:31:13.302Z,102171.81
2023-02-06T21:33:40.162Z,102182.75
2023-02-06T21:36:08.221Z,102181.84
2023-02-06T21:38:36.353Z,102177.66
2023-02-06T21:41:07.914Z,102175.13
2023-02-06T21:43:35.047Z,102178.44
2023-02-06T21:46:02.242Z,102173.41
2023-02-06T21:48:29.376Z,102163.97
2023-02-06T21:50:57.613Z,102167.41
2023-02-06T21:53:25.585Z,102168.25
2023-02-06T21:55:52.460Z,102175.81
2023-02-06T21:58:19.798Z,102175.81
2023-02-06T22:00:47.643Z,102172.53
2023-02-06T22:03:14.942Z,102175.94
2023-02-06T22:05:41.907Z,102173.41
2023-02-06T22:08:08.675Z,102182.66
2023-02-06T22:10:37.424Z,102188.66
2023-02-06T22:13:06.071Z,102193.06
2023-02-06T22:15:33.703Z,102190.63
2023-02-06T22:18:00.876Z,102196.66
2023-02-06T22:20:28.069Z,102204.41
2023-02-06T22:22:55.283Z,102208.78
2023-02-06T22:25:22.514Z,102207.00
2023-02-06T22:27:49.429Z,102206.88
2023-02-06T22:30:16.420Z,102212.78
2023-02-06T22:32:43.182Z,102219.56
2023-02-06T22:35:10.014Z,102216.22
2023-02-06T22:37:36.832Z,102217.16
2023-02-06T22:40:03.712Z,102218.75
2023-02-06T22:42:30.621Z,102218.75
2023-02-06T22:44:57.465Z,102222.34
2023-02-06T22:47:24.227Z,102218.22
2023-02-06T22:49:52.721Z,102219.88
2023-02-06T22:52:38.301Z,102217.38
2023-02-06T22:55:05.896Z,102230.88
2023-02-06T22:57:35.322Z,102219.13
2023-02-06T23:00:02.104Z,102224.31
2023-02-06T23:02:50.732Z,102233.63
2023-02-06T23:05:17.546Z,102233.69
2023-02-06T23:07:44.712Z,102242.97
2023-02-06T23:10:11.660Z,102239.66
2023-02-06T23:12:39.339Z,102232.91
2023-02-06T23:15:06.389Z,102238.00
2023-02-06T23:17:33.511Z,102243.97
2023-02-06T23:20:00.353Z,102239.75
2023-02-06T23:22:28.377Z,102243.16
2023-02-06T23:24:55.254Z,102253.41
2023-02-06T23:27:22.213Z,102248.34
2023-02-06T23:29:48.985Z,102248.34
2023-02-06T23:32:15.809Z,102247.50
2023-02-06T23:34:42.631Z,102245.03
2023-02-06T23:37:09.430Z,102254.38
2023-02-06T23:39:36.213Z,102255.31
2023-02-06T23:42:03.049Z,102257.00
2023-02-06T23:44:29.879Z,102252.78
2023-02-06T23:46:57.203Z,102257.03
2023-02-06T23:49:23.957Z,102260.47
2023-02-06T23:51:51.115Z,102268.19
2023-02-06T23:54:17.910Z,102256.59
2023-02-06T23:56:44.797Z,102267.53
2023-02-06T23:59:13.107Z,102261.66
